sensor_id;sensor_type;location;lat;lon;timestamp;pressure;altitude;pressure_sealevel;temperature;humidity
3082;BME280;1551;51.046;7.010;2023-02-28T00:02:08;102251.56;;;2.18;61.21
3082;BME280;1551;51.046;7.010;2023-02-28T00:04:57;102255.69;;;2.16;61.45
3082;BME280;1551;51.046;7.010;2023-02-28T00:07:50;102254.03;;;2.17;61.19
3082;BME280;1551;51.046;7.010;2023-02-28T00:10:39;102253.09;;;2.15;61.49
3082;BME280;1551;51.046;7.010;2023-02-28T00:13:29;102249.81;;;2.16;61.55
3082;BME280;1551;51.046;7.010;2023-02-28T00:16:20;102252.16;;;2.13;61.28
3082;BME280;1551;51.046;7.010;2023-02-28T00:19:09;102237.41;;;2.04;61.89
3082;BME280;1551;51.046;7.010;2023-02-28T00:21:58;102251.13;;;2.09;62.14
3082;BME280;1551;51.046;7.010;2023-02-28T00:24:47;102244.50;;;2.11;62.30
3082;BME280;1551;51.046;7.010;2023-02-28T00:27:37;102249.41;;;2.08;62.22
3082;BME280;1551;51.046;7.010;2023-02-28T00:30:27;102258.72;;;2.09;62.43
3082;BME280;1551;51.046;7.010;2023-02-28T00:33:16;102250.28;;;2.08;62.09
3082;BME280;1551;51.046;7.010;2023-02-28T00:36:08;102244.84;;;2.01;62.28
3082;BME280;1551;51.046;7.010;2023-02-28T00:38:59;102254.09;;;2.00;62.62
3082;BME280;1551;51.046;7.010;2023-02-28T00:41:50;102247.44;;;2.02;62.38
3082;BME280;1551;51.046;7.010;2023-02-28T00:44:39;102252.44;;;2.01;62.70
3082;BME280;1551;51.046;7.010;2023-02-28T00:47:28;102249.03;;;2.00;62.57
3082;BME280;1551;51.046;7.010;2023-02-28T00:50:19;102249.91;;;2.01;62.57
3082;BME280;1551;51.046;7.010;2023-02-28T00:53:09;102249.91;;;2.01;63.01
3082;BME280;1551;51.046;7.010;2023-02-28T00:55:58;102242.09;;;1.96;62.47
3082;BME280;1551;51.046;7.010;2023-02-28T00:58:49;102242.94;;;1.97;62.79
3082;BME280;1551;51.046;7.010;2023-02-28T01:01:38;102247.56;;;1.88;63.03
3082;BME280;1551;51.046;7.010;2023-02-28T01:04:27;102253.41;;;1.87;63.19
3082;BME280;1551;51.046;7.010;2023-02-28T01:07:16;102250.00;;;1.86;63.41
3082;BME280;1551;51.046;7.010;2023-02-28T01:10:05;102248.13;;;1.82;63.42
3082;BME280;1551;51.046;7.010;2023-02-28T01:12:55;102242.91;;;1.79;63.49
3082;BME280;1551;51.046;7.010;2023-02-28T01:15:50;102253.25;;;1.84;63.59
3082;BME280;1551;51.046;7.010;2023-02-28T01:18:42;102255.84;;;1.85;63.40
3082;BME280;1551;51.046;7.010;2023-02-28T01:21:31;102254.34;;;1.89;63.35
3082;BME280;1551;51.046;7.010;2023-02-28T01:24:20;102250.78;;;1.85;63.09
3082;BME280;1551;51.046;7.010;2023-02-28T01:27:09;102254.06;;;1.83;63.14
3082;BME280;1551;51.046;7.010;2023-02-28T01:29:59;102250.00;;;1.86;62.58
3082;BME280;1551;51.046;7.010;2023-02-28T01:32:48;102244.91;;;1.85;63.02
3082;BME280;1551;51.046;7.010;2023-02-28T01:35:38;102249.22;;;1.87;63.03
3082;BME280;1551;51.046;7.010;2023-02-28T01:38:27;102250.94;;;1.88;62.84
3082;BME280;1551;51.046;7.010;2023-02-28T01:41:18;102246.00;;;1.90;62.67
3082;BME280;1551;51.046;7.010;2023-02-28T01:47:36;102244.25;;;1.89;62.49
3082;BME280;1551;51.046;7.010;2023-02-28T01:50:29;102246.84;;;1.90;62.45
3082;BME280;1551;51.046;7.010;2023-02-28T01:53:45;102236.75;;;1.90;62.70
3082;BME280;1551;51.046;7.010;2023-02-28T01:56:36;102230.47;;;1.82;62.59
3082;BME280;1551;51.046;7.010;2023-02-28T01:59:35;102219.81;;;1.72;62.14
3082;BME280;1551;51.046;7.010;2023-02-28T02:02:29;102227.56;;;1.75;62.84
3082;BME280;1551;51.046;7.010;2023-02-28T02:05:23;102234.09;;;1.71;63.10
3082;BME280;1551;51.046;7.010;2023-02-28T02:08:19;102218.66;;;1.65;63.79
3082;BME280;1551;51.046;7.010;2023-02-28T02:11:11;102227.09;;;1.66;64.52
3082;BME280;1551;51.046;7.010;2023-02-28T02:14:34;102215.47;;;1.69;64.87
3082;BME280;1551;51.046;7.010;2023-02-28T02:17:35;102224.63;;;1.67;64.54
3082;BME280;1551;51.046;7.010;2023-02-28T02:26:52;102214.03;;;1.57;65.02
3082;BME280;1551;51.046;7.010;2023-02-28T02:33:03;102211.41;;;1.55;64.79
3082;BME280;1551;51.046;7.010;2023-02-28T02:36:04;102203.69;;;1.52;65.14
3082;BME280;1551;51.046;7.010;2023-02-28T02:41:58;102205.66;;;1.42;65.10
3082;BME280;1551;51.046;7.010;2023-02-28T02:44:55;102205.59;;;1.40;65.79
3082;BME280;1551;51.046;7.010;2023-02-28T02:47:47;102205.72;;;1.43;65.94
3082;BME280;1551;51.046;7.010;2023-02-28T02:50:41;102206.47;;;1.41;65.97
3082;BME280;1551;51.046;7.010;2023-02-28T02:53:39;102211.19;;;1.34;66.34
3082;BME280;1551;51.046;7.010;2023-02-28T02:56:31;102210.78;;;1.27;66.50
3082;BME280;1551;51.046;7.010;2023-02-28T02:59:22;102205.50;;;1.22;66.74
3082;BME280;1551;51.046;7.010;2023-02-28T03:02:14;102207.31;;;1.25;66.67
3082;BME280;1551;51.046;7.010;2023-02-28T03:05:09;102209.06;;;1.26;67.08
3082;BME280;1551;51.046;7.010;2023-02-28T03:08:05;102206.44;;;1.24;66.93
3082;BME280;1551;51.046;7.010;2023-02-28T03:10:57;102201.25;;;1.21;67.12
3082;BME280;1551;51.046;7.010;2023-02-28T03:17:24;102202.50;;;1.13;67.15
3082;BME280;1551;51.046;7.010;2023-02-28T03:24:05;102194.41;;;1.03;67.80
3082;BME280;1551;51.046;7.010;2023-02-28T03:27:05;102201.03;;;1.01;68.32
3082;BME280;1551;51.046;7.010;2023-02-28T03:30:10;102195.09;;;1.00;68.67
3082;BME280;1551;51.046;7.010;2023-02-28T03:33:12;102196.69;;;0.98;68.57
3082;BME280;1551;51.046;7.010;2023-02-28T03:36:10;102195.63;;;0.95;68.97
3082;BME280;1551;51.046;7.010;2023-02-28T03:39:05;102189.72;;;0.94;69.17
3082;BME280;1551;51.046;7.010;2023-02-28T03:42:02;102192.94;;;0.92;68.85
3082;BME280;1551;51.046;7.010;2023-02-28T03:45:05;102194.53;;;0.90;69.29
3082;BME280;1551;51.046;7.010;2023-02-28T03:48:05;102198.00;;;0.92;68.83
3082;BME280;1551;51.046;7.010;2023-02-28T03:50:58;102191.69;;;0.84;69.25
3082;BME280;1551;51.046;7.010;2023-02-28T03:53:53;102200.19;;;0.86;69.56
3082;BME280;1551;51.046;7.010;2023-02-28T03:57:11;102184.66;;;0.78;69.40
3082;BME280;1551;51.046;7.010;2023-02-28T04:00:03;102195.94;;;0.85;69.41
3082;BME280;1551;51.046;7.010;2023-02-28T04:03:01;102198.13;;;0.79;69.31
3082;BME280;1551;51.046;7.010;2023-02-28T04:05:53;102199.97;;;0.81;69.53
3082;BME280;1551;51.046;7.010;2023-02-28T04:08:42;102208.53;;;0.85;69.00
3082;BME280;1551;51.046;7.010;2023-02-28T04:11:44;102202.53;;;0.83;68.91
3082;BME280;1551;51.046;7.010;2023-02-28T04:14:34;102199.97;;;0.81;68.41
3082;BME280;1551;51.046;7.010;2023-02-28T04:17:23;102211.69;;;0.81;68.39
3082;BME280;1551;51.046;7.010;2023-02-28T04:20:12;102210.28;;;0.86;68.24
3082;BME280;1551;51.046;7.010;2023-02-28T04:23:02;102206.09;;;0.86;67.29
3082;BME280;1551;51.046;7.010;2023-02-28T04:25:55;102201.06;;;0.86;66.58
3082;BME280;1551;51.046;7.010;2023-02-28T04:28:43;102211.63;;;0.95;66.27
3082;BME280;1551;51.046;7.010;2023-02-28T04:31:33;102211.69;;;0.97;65.39
3082;BME280;1551;51.046;7.010;2023-02-28T04:34:22;102216.75;;;0.97;65.35
3082;BME280;1551;51.046;7.010;2023-02-28T04:37:12;102220.31;;;1.00;65.05
3082;BME280;1551;51.046;7.010;2023-02-28T04:40:01;102206.41;;;0.92;64.71
3082;BME280;1551;51.046;7.010;2023-02-28T04:42:50;102219.44;;;1.00;64.23
3082;BME280;1551;51.046;7.010;2023-02-28T04:45:39;102217.69;;;0.99;64.09
3082;BME280;1551;51.046;7.010;2023-02-28T04:48:29;102220.31;;;1.00;63.69
3082;BME280;1551;51.046;7.010;2023-02-28T04:51:18;102222.13;;;1.03;63.24
3082;BME280;1551;51.046;7.010;2023-02-28T04:54:08;102229.59;;;1.01;63.18
3082;BME280;1551;51.046;7.010;2023-02-28T04:56:58;102221.88;;;0.98;63.41
3082;BME280;1551;51.046;7.010;2023-02-28T04:59:47;102221.97;;;1.00;62.79
3082;BME280;1551;51.046;7.010;2023-02-28T05:02:36;102219.38;;;0.98;62.92
3082;BME280;1551;51.046;7.010;2023-02-28T05:05:25;102223.53;;;0.98;62.70
3082;BME280;1551;51.046;7.010;2023-02-28T05:08:14;102231.81;;;0.95;62.62
3082;BME280;1551;51.046;7.010;2023-02-28T05:11:04;102231.88;;;0.97;62.30
3082;BME280;1551;51.046;7.010;2023-02-28T05:13:53;102235.25;;;0.97;62.43
3082;BME280;1551;51.046;7.010;2023-02-28T05:16:42;102241.88;;;0.95;62.15
3082;BME280;1551;51.046;7.010;2023-02-28T05:19:31;102233.28;;;0.92;62.61
3082;BME280;1551;51.046;7.010;2023-02-28T05:22:20;102237.72;;;0.96;62.52
3082;BME280;1551;51.046;7.010;2023-02-28T05:25:16;102239.34;;;0.95;61.94
3082;BME280;1551;51.046;7.010;2023-02-28T05:28:07;102232.50;;;0.93;61.79
3082;BME280;1551;51.046;7.010;2023-02-28T05:30:56;102232.31;;;0.90;61.84
3082;BME280;1551;51.046;7.010;2023-02-28T05:33:46;102233.66;;;0.83;62.27
3082;BME280;1551;51.046;7.010;2023-02-28T05:36:36;102230.97;;;0.80;62.07
3082;BME280;1551;51.046;7.010;2023-02-28T05:39:25;102243.03;;;0.86;61.84
3082;BME280;1551;51.046;7.010;2023-02-28T05:42:15;102242.16;;;0.85;61.62
3082;BME280;1551;51.046;7.010;2023-02-28T05:45:05;102240.34;;;0.83;61.71
3082;BME280;1551;51.046;7.010;2023-02-28T05:47:54;102245.56;;;0.86;61.86
3082;BME280;1551;51.046;7.010;2023-02-28T05:50:44;102254.06;;;0.88;61.35
3082;BME280;1551;51.046;7.010;2023-02-28T05:53:35;102248.06;;;0.86;61.44
3082;BME280;1551;51.046;7.010;2023-02-28T05:56:24;102246.31;;;0.85;61.12
3082;BME280;1551;51.046;7.010;2023-02-28T05:59:13;102246.50;;;0.88;61.00
3082;BME280;1551;51.046;7.010;2023-02-28T06:02:02;102250.06;;;0.91;60.97
3082;BME280;1551;51.046;7.010;2023-02-28T06:04:51;102238.25;;;0.90;60.81
3082;BME280;1551;51.046;7.010;2023-02-28T06:07:41;102242.34;;;0.88;60.17
3082;BME280;1551;51.046;7.010;2023-02-28T06:10:30;102241.63;;;0.91;60.54
3082;BME280;1551;51.046;7.010;2023-02-28T06:13:19;102243.34;;;0.92;60.42
3082;BME280;1551;51.046;7.010;2023-02-28T06:16:10;102244.84;;;0.88;60.64
3082;BME280;1551;51.046;7.010;2023-02-28T06:19:01;102244.84;;;0.88;60.35
3082;BME280;1551;51.046;7.010;2023-02-28T06:21:52;102255.47;;;0.83;60.52
3082;BME280;1551;51.046;7.010;2023-02-28T06:24:41;102255.63;;;0.86;60.29
3082;BME280;1551;51.046;7.010;2023-02-28T06:27:31;102259.03;;;0.86;60.25
3082;BME280;1551;51.046;7.010;2023-02-28T06:30:20;102259.19;;;0.89;59.91
3082;BME280;1551;51.046;7.010;2023-02-28T06:33:15;102259.09;;;0.88;60.42
3082;BME280;1551;51.046;7.010;2023-02-28T06:36:04;102265.78;;;0.87;59.92
3082;BME280;1551;51.046;7.010;2023-02-28T06:38:54;102266.84;;;0.91;59.66
3082;BME280;1551;51.046;7.010;2023-02-28T06:41:44;102275.41;;;0.94;59.90
3082;BME280;1551;51.046;7.010;2023-02-28T06:44:35;102258.09;;;0.84;59.62
3082;BME280;1551;51.046;7.010;2023-02-28T06:47:24;102277.88;;;0.93;59.58
3082;BME280;1551;51.046;7.010;2023-02-28T06:50:14;102290.66;;;0.96;59.32
3082;BME280;1551;51.046;7.010;2023-02-28T06:53:03;102290.97;;;1.02;59.22
3082;BME280;1551;51.046;7.010;2023-02-28T06:55:52;102299.66;;;1.07;59.47
3082;BME280;1551;51.046;7.010;2023-02-28T06:58:41;102299.00;;;1.11;59.41
3082;BME280;1551;51.046;7.010;2023-02-28T07:01:30;102305.16;;;1.16;58.86
3082;BME280;1551;51.046;7.010;2023-02-28T07:04:21;102301.94;;;1.18;58.37
3082;BME280;1551;51.046;7.010;2023-02-28T07:07:11;102306.28;;;1.21;57.99
3082;BME280;1551;51.046;7.010;2023-02-28T07:10:00;102304.09;;;1.27;57.72
3082;BME280;1551;51.046;7.010;2023-02-28T07:12:49;102306.13;;;1.34;57.19
3082;BME280;1551;51.046;7.010;2023-02-28T07:15:40;102299.63;;;1.37;56.91
3082;BME280;1551;51.046;7.010;2023-02-28T07:18:29;102306.56;;;1.42;56.53
3082;BME280;1551;51.046;7.010;2023-02-28T07:21:18;102306.97;;;1.49;56.42
3082;BME280;1551;51.046;7.010;2023-02-28T07:24:07;102309.72;;;1.54;55.59
3082;BME280;1551;51.046;7.010;2023-02-28T07:26:57;102306.50;;;1.56;54.76
3082;BME280;1551;51.046;7.010;2023-02-28T07:29:46;102319.66;;;1.67;54.53
3082;BME280;1551;51.046;7.010;2023-02-28T07:32:35;102315.88;;;1.75;54.09
3082;BME280;1551;51.046;7.010;2023-02-28T07:35:26;102315.47;;;1.83;54.06
3082;BME280;1551;51.046;7.010;2023-02-28T07:38:15;102315.88;;;1.91;53.67
3082;BME280;1551;51.046;7.010;2023-02-28T07:41:04;102317.13;;;1.99;52.74
3082;BME280;1551;51.046;7.010;2023-02-28T07:43:54;102317.81;;;2.13;52.28
3082;BME280;1551;51.046;7.010;2023-02-28T07:46:44;102319.44;;;2.28;51.95
3082;BME280;1551;51.046;7.010;2023-02-28T07:49:33;102311.81;;;2.44;51.39
3082;BME280;1551;51.046;7.010;2023-02-28T07:52:23;102310.63;;;2.71;50.82
3082;BME280;1551;51.046;7.010;2023-02-28T07:55:12;102316.91;;;2.97;50.13
3082;BME280;1551;51.046;7.010;2023-02-28T07:58:02;102320.75;;;3.43;49.10
3082;BME280;1551;51.046;7.010;2023-02-28T08:00:51;102324.47;;;3.90;48.37
3082;BME280;1551;51.046;7.010;2023-02-28T08:03:40;102333.47;;;4.22;46.34
3082;BME280;1551;51.046;7.010;2023-02-28T08:06:30;102330.13;;;4.43;45.03
3082;BME280;1551;51.046;7.010;2023-02-28T08:09:19;102328.53;;;4.66;45.10
3082;BME280;1551;51.046;7.010;2023-02-28T08:12:09;102301.56;;;4.68;44.19
3082;BME280;1551;51.046;7.010;2023-02-28T08:14:58;102331.16;;;5.10;43.52
3082;BME280;1551;51.046;7.010;2023-02-28T08:17:47;102330.72;;;5.44;42.66
3082;BME280;1551;51.046;7.010;2023-02-28T08:20:36;102333.13;;;5.63;42.87
3082;BME280;1551;51.046;7.010;2023-02-28T08:23:25;102334.19;;;5.92;41.57
3082;BME280;1551;51.046;7.010;2023-02-28T08:26:15;102342.22;;;6.02;40.89
3082;BME280;1551;51.046;7.010;2023-02-28T08:29:04;102324.22;;;6.21;40.46
3082;BME280;1551;51.046;7.010;2023-02-28T08:31:53;102329.69;;;6.32;39.42
3082;BME280;1551;51.046;7.010;2023-02-28T08:34:42;102324.59;;;6.32;39.65
3082;BME280;1551;51.046;7.010;2023-02-28T08:37:31;102341.91;;;6.69;38.98
3082;BME280;1551;51.046;7.010;2023-02-28T08:40:20;102327.66;;;6.74;38.38
3082;BME280;1551;51.046;7.010;2023-02-28T08:43:09;102340.28;;;6.71;37.39
3082;BME280;1551;51.046;7.010;2023-02-28T08:45:58;102338.25;;;6.87;37.64
3082;BME280;1551;51.046;7.010;2023-02-28T08:48:52;102347.06;;;6.97;37.68
3082;BME280;1551;51.046;7.010;2023-02-28T08:51:42;102345.75;;;7.10;37.18
3082;BME280;1551;51.046;7.010;2023-02-28T08:54:31;102340.31;;;7.26;36.46
3082;BME280;1551;51.046;7.010;2023-02-28T08:57:21;102337.72;;;7.52;36.67
3082;BME280;1551;51.046;7.010;2023-02-28T09:00:11;102345.28;;;7.81;35.90
3082;BME280;1551;51.046;7.010;2023-02-28T09:03:02;102338.03;;;7.94;35.14
3082;BME280;1551;51.046;7.010;2023-02-28T09:05:56;102340.56;;;8.25;34.95
3082;BME280;1551;51.046;7.010;2023-02-28T09:08:45;102351.16;;;8.39;34.43
3082;BME280;1551;51.046;7.010;2023-02-28T09:11:35;102347.69;;;8.37;34.13
3082;BME280;1551;51.046;7.010;2023-02-28T09:14:24;102338.00;;;8.57;34.07
3082;BME280;1551;51.046;7.010;2023-02-28T09:17:13;102325.41;;;8.64;33.91
3082;BME280;1551;51.046;7.010;2023-02-28T09:20:02;102322.09;;;9.04;33.72
3082;BME280;1551;51.046;7.010;2023-02-28T09:22:51;102323.72;;;9.39;33.54
3082;BME280;1551;51.046;7.010;2023-02-28T09:25:48;102326.91;;;9.71;32.62
3082;BME280;1551;51.046;7.010;2023-02-28T09:28:37;102323.56;;;9.74;32.88
3082;BME280;1551;51.046;7.010;2023-02-28T09:31:27;102316.22;;;9.90;32.33
3082;BME280;1551;51.046;7.010;2023-02-28T09:34:17;102311.97;;;9.92;31.24
3082;BME280;1551;51.046;7.010;2023-02-28T09:37:05;102318.28;;;10.11;31.73
3082;BME280;1551;51.046;7.010;2023-02-28T09:39:54;102332.38;;;10.32;31.05
3082;BME280;1551;51.046;7.010;2023-02-28T09:42:45;102323.22;;;10.47;30.17
3082;BME280;1551;51.046;7.010;2023-02-28T09:45:39;102317.09;;;10.91;29.42
3082;BME280;1551;51.046;7.010;2023-02-28T09:48:34;102326.47;;;11.52;29.60
3082;BME280;1551;51.046;7.010;2023-02-28T09:51:45;102328.31;;;11.63;29.11
3082;BME280;1551;51.046;7.010;2023-02-28T09:54:37;102327.00;;;11.96;28.88
3082;BME280;1551;51.046;7.010;2023-02-28T09:57:37;102328.19;;;12.29;28.19
3082;BME280;1551;51.046;7.010;2023-02-28T10:00:37;102315.16;;;13.17;27.83
3082;BME280;1551;51.046;7.010;2023-02-28T10:04:04;102321.34;;;13.55;26.60
3082;BME280;1551;51.046;7.010;2023-02-28T10:06:49;102324.91;;;13.96;26.26
3082;BME280;1551;51.046;7.010;2023-02-28T10:09:38;102318.06;;;14.25;25.86
3082;BME280;1551;51.046;7.010;2023-02-28T10:12:29;102317.25;;;14.76;25.19
3082;BME280;1551;51.046;7.010;2023-02-28T10:15:22;102314.69;;;14.84;24.52
3082;BME280;1551;51.046;7.010;2023-02-28T10:18:15;102319.72;;;15.31;24.40
3082;BME280;1551;51.046;7.010;2023-02-28T10:21:05;102314.50;;;15.38;23.48
3082;BME280;1551;51.046;7.010;2023-02-28T10:24:28;102318.69;;;15.72;22.99
3082;BME280;1551;51.046;7.010;2023-02-28T10:27:29;102314.38;;;15.77;22.91
3082;BME280;1551;51.046;7.010;2023-02-28T10:30:19;102315.81;;;16.19;22.63
3082;BME280;1551;51.046;7.010;2023-02-28T10:33:17;102317.41;;;16.37;22.83
3082;BME280;1551;51.046;7.010;2023-02-28T10:36:13;102311.50;;;17.17;22.86
3082;BME280;1551;51.046;7.010;2023-02-28T10:39:36;102312.75;;;16.80;22.64
3082;BME280;1551;51.046;7.010;2023-02-28T10:42:30;102315.97;;;15.92;22.78
3082;BME280;1551;51.046;7.010;2023-02-28T10:45:19;102317.91;;;15.52;22.92
3082;BME280;1551;51.046;7.010;2023-02-28T10:51:04;102309.41;;;15.17;24.01
3082;BME280;1551;51.046;7.010;2023-02-28T10:53:54;102302.13;;;16.07;22.77
3082;BME280;1551;51.046;7.010;2023-02-28T10:56:44;102293.56;;;15.97;22.97
3082;BME280;1551;51.046;7.010;2023-02-28T10:59:33;102297.59;;;17.24;22.65
3082;BME280;1551;51.046;7.010;2023-02-28T11:02:36;102288.06;;;17.95;21.39
3082;BME280;1551;51.046;7.010;2023-02-28T11:05:35;102275.16;;;18.45;21.77
3082;BME280;1551;51.046;7.010;2023-02-28T11:08:25;102291.53;;;18.94;20.85
3082;BME280;1551;51.046;7.010;2023-02-28T11:11:14;102285.56;;;19.75;20.66
3082;BME280;1551;51.046;7.010;2023-02-28T11:14:05;102272.38;;;19.46;20.14
3082;BME280;1551;51.046;7.010;2023-02-28T11:17:21;102276.81;;;17.96;22.10
3082;BME280;1551;51.046;7.010;2023-02-28T11:20:20;102287.69;;;18.19;20.88
3082;BME280;1551;51.046;7.010;2023-02-28T11:23:13;102271.03;;;16.22;22.74
3082;BME280;1551;51.046;7.010;2023-02-28T11:26:04;102285.28;;;16.68;22.30
3082;BME280;1551;51.046;7.010;2023-02-28T11:29:10;102275.97;;;17.28;22.43
3082;BME280;1551;51.046;7.010;2023-02-28T11:32:20;102280.47;;;19.29;20.90
3082;BME280;1551;51.046;7.010;2023-02-28T11:37:59;102282.13;;;20.11;19.94
3082;BME280;1551;51.046;7.010;2023-02-28T11:44:17;102271.97;;;20.01;19.76
3082;BME280;1551;51.046;7.010;2023-02-28T11:47:17;102284.50;;;20.55;19.15
3082;BME280;1551;51.046;7.010;2023-02-28T11:53:14;102274.13;;;19.44;20.79
3082;BME280;1551;51.046;7.010;2023-02-28T12:06:09;102274.53;;;20.71;18.98
3082;BME280;1551;51.046;7.010;2023-02-28T12:15:28;102271.38;;;22.08;17.58
3082;BME280;1551;51.046;7.010;2023-02-28T12:18:48;102266.72;;;21.62;17.49
3082;BME280;1551;51.046;7.010;2023-02-28T12:22:04;102272.72;;;21.93;17.99
3082;BME280;1551;51.046;7.010;2023-02-28T12:28:40;102255.00;;;22.53;17.61
3082;BME280;1551;51.046;7.010;2023-02-28T12:31:36;102249.84;;;22.27;18.01
3082;BME280;1551;51.046;7.010;2023-02-28T12:34:32;102246.63;;;22.70;17.63
3082;BME280;1551;51.046;7.010;2023-02-28T12:37:29;102244.41;;;22.33;17.48
3082;BME280;1551;51.046;7.010;2023-02-28T12:40:23;102247.47;;;21.09;18.47
3082;BME280;1551;51.046;7.010;2023-02-28T12:43:13;102233.50;;;22.22;17.98
3082;BME280;1551;51.046;7.010;2023-02-28T12:46:34;102238.25;;;22.85;17.07
3082;BME280;1551;51.046;7.010;2023-02-28T12:49:28;102223.38;;;22.87;17.12
3082;BME280;1551;51.046;7.010;2023-02-28T12:52:29;102222.13;;;23.44;17.03
3082;BME280;1551;51.046;7.010;2023-02-28T12:55:33;102227.72;;;23.33;16.60
3082;BME280;1551;51.046;7.010;2023-02-28T13:01:57;102208.38;;;23.60;16.40
3082;BME280;1551;51.046;7.010;2023-02-28T13:11:26;102192.72;;;23.80;16.19
3082;BME280;1551;51.046;7.010;2023-02-28T13:17:20;102196.03;;;23.42;16.11
3082;BME280;1551;51.046;7.010;2023-02-28T13:20:29;102197.19;;;23.35;15.98
3082;BME280;1551;51.046;7.010;2023-02-28T13:29:40;102191.28;;;24.15;15.82
3082;BME280;1551;51.046;7.010;2023-02-28T13:32:32;102196.25;;;24.41;15.68
3082;BME280;1551;51.046;7.010;2023-02-28T13:35:36;102192.59;;;24.25;15.70
3082;BME280;1551;51.046;7.010;2023-02-28T13:38:35;102185.94;;;23.76;15.75
3082;BME280;1551;51.046;7.010;2023-02-28T13:44:24;102173.34;;;23.64;16.13
3082;BME280;1551;51.046;7.010;2023-02-28T13:47:24;102175.97;;;23.43;16.46
3082;BME280;1551;51.046;7.010;2023-02-28T13:56:27;102182.44;;;23.11;16.31
3082;BME280;1551;51.046;7.010;2023-02-28T13:59:32;102175.81;;;22.54;17.04
3082;BME280;1551;51.046;7.010;2023-02-28T14:05:35;102168.91;;;23.23;16.62
3082;BME280;1551;51.046;7.010;2023-02-28T14:08:24;102166.09;;;22.58;16.75
3082;BME280;1551;51.046;7.010;2023-02-28T14:11:28;102158.78;;;22.44;17.02
3082;BME280;1551;51.046;7.010;2023-02-28T14:17:28;102154.69;;;23.30;16.81
3082;BME280;1551;51.046;7.010;2023-02-28T14:20:17;102144.34;;;22.59;17.16
3082;BME280;1551;51.046;7.010;2023-02-28T14:32:49;102143.75;;;22.76;17.07
3082;BME280;1551;51.046;7.010;2023-02-28T14:38:36;102147.44;;;23.15;16.30
3082;BME280;1551;51.046;7.010;2023-02-28T14:44:27;102138.31;;;23.68;15.97
3082;BME280;1551;51.046;7.010;2023-02-28T14:47:16;102145.34;;;23.46;16.06
3082;BME280;1551;51.046;7.010;2023-02-28T14:50:06;102142.94;;;22.97;16.60
3082;BME280;1551;51.046;7.010;2023-02-28T14:52:58;102127.25;;;22.97;16.81
3082;BME280;1551;51.046;7.010;2023-02-28T14:55:49;102135.38;;;22.89;16.53
3082;BME280;1551;51.046;7.010;2023-02-28T14:58:38;102137.56;;;23.23;16.35
3082;BME280;1551;51.046;7.010;2023-02-28T15:01:27;102132.06;;;23.29;16.81
3082;BME280;1551;51.046;7.010;2023-02-28T15:04:25;102134.25;;;23.18;16.88
3082;BME280;1551;51.046;7.010;2023-02-28T15:07:15;102146.69;;;22.67;16.91
3082;BME280;1551;51.046;7.010;2023-02-28T15:13:09;102134.53;;;22.18;17.23
3082;BME280;1551;51.046;7.010;2023-02-28T15:16:02;102131.06;;;22.17;17.42
3082;BME280;1551;51.046;7.010;2023-02-28T15:19:00;102109.41;;;22.15;17.59
3082;BME280;1551;51.046;7.010;2023-02-28T15:21:57;102121.38;;;22.44;17.08
3082;BME280;1551;51.046;7.010;2023-02-28T15:24:50;102120.97;;;22.08;17.45
3082;BME280;1551;51.046;7.010;2023-02-28T15:27:47;102120.38;;;22.25;17.39
3082;BME280;1551;51.046;7.010;2023-02-28T15:30:38;102119.16;;;22.10;16.99
3082;BME280;1551;51.046;7.010;2023-02-28T15:33:33;102109.44;;;21.37;17.46
3082;BME280;1551;51.046;7.010;2023-02-28T15:36:29;102099.56;;;21.46;17.82
3082;BME280;1551;51.046;7.010;2023-02-28T15:39:21;102110.81;;;20.91;18.05
3082;BME280;1551;51.046;7.010;2023-02-28T15:42:16;102112.19;;;20.46;18.36
3082;BME280;1551;51.046;7.010;2023-02-28T15:48:27;102113.19;;;20.40;18.80
3082;BME280;1551;51.046;7.010;2023-02-28T15:51:18;102107.75;;;20.17;18.89
3082;BME280;1551;51.046;7.010;2023-02-28T15:54:14;102094.56;;;19.93;19.30
3082;BME280;1551;51.046;7.010;2023-02-28T15:57:13;102112.44;;;19.36;19.29
3082;BME280;1551;51.046;7.010;2023-02-28T16:00:03;102105.88;;;19.19;19.91
3082;BME280;1551;51.046;7.010;2023-02-28T16:03:00;102114.72;;;18.73;19.96
3082;BME280;1551;51.046;7.010;2023-02-28T16:06:08;102109.47;;;17.84;20.40
3082;BME280;1551;51.046;7.010;2023-02-28T16:08:57;102103.81;;;17.03;21.16
3082;BME280;1551;51.046;7.010;2023-02-28T16:11:51;102105.34;;;15.65;22.46
3082;BME280;1551;51.046;7.010;2023-02-28T16:14:41;102106.97;;;13.60;24.23
3082;BME280;1551;51.046;7.010;2023-02-28T16:17:34;102107.56;;;12.58;25.84
3082;BME280;1551;51.046;7.010;2023-02-28T16:20:27;102112.38;;;12.05;26.93
3082;BME280;1551;51.046;7.010;2023-02-28T16:23:16;102117.09;;;11.55;27.36
3082;BME280;1551;51.046;7.010;2023-02-28T16:26:06;102119.16;;;11.04;27.90
3082;BME280;1551;51.046;7.010;2023-02-28T16:28:55;102112.78;;;10.72;29.07
3082;BME280;1551;51.046;7.010;2023-02-28T16:31:44;102122.50;;;10.32;30.00
3082;BME280;1551;51.046;7.010;2023-02-28T16:34:33;102111.00;;;10.03;30.32
3082;BME280;1551;51.046;7.010;2023-02-28T16:37:22;102114.91;;;9.83;30.13
3082;BME280;1551;51.046;7.010;2023-02-28T16:40:21;102119.91;;;9.76;30.64
3082;BME280;1551;51.046;7.010;2023-02-28T16:43:15;102105.00;;;9.49;31.55
3082;BME280;1551;51.046;7.010;2023-02-28T16:46:10;102125.44;;;9.49;31.89
3082;BME280;1551;51.046;7.010;2023-02-28T16:48:59;102130.34;;;9.38;31.81
3082;BME280;1551;51.046;7.010;2023-02-28T16:51:48;102130.25;;;9.32;31.90
3082;BME280;1551;51.046;7.010;2023-02-28T16:54:38;102134.16;;;9.14;32.31
3082;BME280;1551;51.046;7.010;2023-02-28T16:57:28;102133.09;;;9.03;32.41
3082;BME280;1551;51.046;7.010;2023-02-28T17:00:17;102137.09;;;8.91;32.39
3082;BME280;1551;51.046;7.010;2023-02-28T17:03:24;102137.72;;;8.78;32.74
3082;BME280;1551;51.046;7.010;2023-02-28T17:06:26;102146.66;;;8.60;33.35
3082;BME280;1551;51.046;7.010;2023-02-28T17:09:21;102142.91;;;8.44;33.83
3082;BME280;1551;51.046;7.010;2023-02-28T17:12:11;102144.00;;;8.18;35.93
3082;BME280;1551;51.046;7.010;2023-02-28T17:15:00;102149.44;;;7.97;37.19
3082;BME280;1551;51.046;7.010;2023-02-28T17:17:49;102150.69;;;7.79;37.96
3082;BME280;1551;51.046;7.010;2023-02-28T17:20:38;102163.19;;;7.68;39.11
3082;BME280;1551;51.046;7.010;2023-02-28T17:23:27;102167.06;;;7.54;39.72
3082;BME280;1551;51.046;7.010;2023-02-28T17:26:18;102175.44;;;7.50;39.96
3082;BME280;1551;51.046;7.010;2023-02-28T17:29:16;102182.03;;;7.43;40.12